Time;durP1;ratioP1;P1;durP2;ratioP2;P2;SDS_P1;SDS_P2;PMS_P1;PMS_P2;Temp;Humidity;BMP_temperature;BMP_pressure;BME280_temperature;BME280_humidity;BME280_pressure;Samples;Min_cycle;Max_cycle;Signal;HPM_P1;HPM_P2
2022/03/30 00:01:30;;;;;;;28.63;13.50;;;4.80;99.90;;;;;;4992328;28;20085;-87
2022/03/30 00:03:55;;;;;;;28.20;14.18;;;4.80;99.90;;;;;;4992534;28;20053;-86
2022/03/30 00:06:21;;;;;;;29.85;15.20;;;6.30;99.90;;;;;;4975963;28;20042;-88
2022/03/30 00:08:53;;;;;;;35.38;15.52;;;5.00;99.90;;;;;;4976428;28;20050;-89
2022/03/30 00:11:19;;;;;;;33.63;15.75;;;4.80;99.90;;;;;;4976210;28;20038;-88
2022/03/30 00:13:44;;;;;;;33.28;15.20;;;4.80;99.90;;;;;;4992310;28;20053;-88
2022/03/30 00:16:11;;;;;;;32.55;14.82;;;5.20;99.90;;;;;;4975337;28;20060;-89
2022/03/30 00:18:37;;;;;;;32.10;15.55;;;4.70;99.90;;;;;;4976951;28;20038;-88
2022/03/30 00:21:15;;;;;;;36.63;15.90;;;4.80;99.90;;;;;;4976117;28;20119;-88
2022/03/30 00:23:40;;;;;;;33.65;16.20;;;4.80;99.90;;;;;;4976232;28;20052;-88
2022/03/30 00:26:07;;;;;;;38.33;16.50;;;5.20;99.90;;;;;;4975431;28;20050;-88
2022/03/30 00:28:33;;;;;;;31.42;14.98;;;5.40;99.90;;;;;;4975883;28;20049;-87
2022/03/30 00:30:58;;;;;;;23.75;12.85;;;4.80;99.90;;;;;;4975357;28;20076;-88
2022/03/30 00:33:25;;;;;;;27.38;14.55;;;4.80;99.90;;;;;;4975795;28;20089;-89
2022/03/30 00:35:51;;;;;;;29.92;14.77;;;4.90;99.90;;;;;;4975706;28;20052;-89
2022/03/30 00:38:17;;;;;;;27.73;15.02;;;4.90;99.90;;;;;;4975482;28;20042;-88
2022/03/30 00:40:43;;;;;;;33.53;15.23;;;5.30;99.90;;;;;;4976162;28;20050;-88
2022/03/30 00:43:08;;;;;;;34.20;15.02;;;5.10;99.90;;;;;;4975134;28;20069;-87
2022/03/30 00:45:44;;;;;;;36.60;15.90;;;5.40;99.90;;;;;;4975467;28;20398;-88
2022/03/30 00:48:10;;;;;;;36.97;16.50;;;5.80;99.90;;;;;;4975391;28;20046;-88
2022/03/30 00:50:36;;;;;;;35.67;16.38;;;5.00;99.90;;;;;;4975267;28;20092;-88
2022/03/30 00:53:02;;;;;;;42.05;16.75;;;5.00;99.90;;;;;;4975416;28;20046;-88
2022/03/30 00:55:27;;;;;;;38.35;16.33;;;5.30;99.90;;;;;;4991505;28;20099;-88
2022/03/30 00:57:55;;;;;;;35.40;17.38;;;5.70;99.90;;;;;;4974991;28;20050;-88
2022/03/30 01:00:25;;;;;;;35.88;15.27;;;6.30;99.90;;;;;;4974373;28;20081;-88
2022/03/30 01:02:51;;;;;;;38.97;16.55;;;5.20;99.90;;;;;;4975663;28;20414;-88
2022/03/30 01:05:17;;;;;;;39.50;16.98;;;5.90;99.90;;;;;;4990489;28;20133;-88
2022/03/30 01:07:56;;;;;;;30.90;14.90;;;5.60;99.90;;;;;;4976470;28;20057;-89
2022/03/30 01:10:22;;;;;;;33.47;15.35;;;5.30;99.90;;;;;;4974868;28;20064;-89
2022/03/30 01:12:52;;;;;;;39.45;16.33;;;6.20;99.90;;;;;;4976222;28;20045;-88
2022/03/30 01:15:18;;;;;;;39.65;16.38;;;6.20;99.90;;;;;;4974021;28;20141;-88
2022/03/30 01:17:44;;;;;;;40.40;16.35;;;5.30;99.90;;;;;;4975938;28;20495;-89
2022/03/30 01:20:17;;;;;;;42.17;14.95;;;4.80;99.90;;;;;;4974945;28;20072;-88
2022/03/30 01:22:42;;;;;;;36.20;14.60;;;5.80;99.90;;;;;;4975709;28;20497;-88
2022/03/30 01:25:09;;;;;;;32.40;15.02;;;5.50;99.90;;;;;;4974044;28;20240;-89
2022/03/30 01:27:35;;;;;;;37.78;15.23;;;6.10;99.90;;;;;;4975657;28;20045;-89
2022/03/30 01:33:07;;;;;;;37.60;15.38;;;5.40;99.90;;;;;;4991000;28;20057;-88
2022/03/30 01:35:34;;;;;;;46.85;16.23;;;5.40;99.90;;;;;;4975392;28;20405;-88
2022/03/30 01:38:01;;;;;;;35.17;15.30;;;6.00;99.90;;;;;;4975224;28;20045;-89
2022/03/30 01:40:26;;;;;;;34.75;15.38;;;4.70;99.90;;;;;;4974085;28;20045;-89
2022/03/30 01:42:52;;;;;;;31.55;15.80;;;6.20;99.90;;;;;;4975627;28;20042;-88
2022/03/30 01:45:18;;;;;;;36.53;16.20;;;5.80;99.90;;;;;;4974388;28;20080;-89
2022/03/30 01:47:53;;;;;;;34.28;15.15;;;4.60;99.90;;;;;;4975217;28;20053;-90
2022/03/30 01:50:18;;;;;;;40.70;15.20;;;6.40;99.90;;;;;;4990907;28;20078;-91
2022/03/30 01:52:45;;;;;;;35.88;15.75;;;5.10;99.90;;;;;;4975520;28;20069;-90
2022/03/30 01:55:20;;;;;;;34.13;14.43;;;5.80;99.90;;;;;;4975900;28;20329;-91
2022/03/30 01:57:46;;;;;;;34.72;13.98;;;6.50;99.90;;;;;;4976443;28;20502;-91
2022/03/30 02:00:15;;;;;;;35.33;14.90;;;5.70;99.90;;;;;;4974949;28;20088;-91
2022/03/30 02:02:41;;;;;;;35.65;14.73;;;5.50;99.90;;;;;;4980282;28;20042;-92
2022/03/30 02:05:09;;;;;;;36.50;15.23;;;5.70;99.90;;;;;;4979304;28;20062;-92
2022/03/30 02:07:36;;;;;;;35.83;14.95;;;5.50;99.90;;;;;;4979569;28;20486;-92
2022/03/30 02:10:07;;;;;;;36.33;14.32;;;5.50;99.90;;;;;;4979287;28;20065;-93
2022/03/30 02:12:34;;;;;;;40.03;15.50;;;5.50;99.90;;;;;;4996203;28;20092;-91
2022/03/30 02:15:00;;;;;;;34.97;15.23;;;5.80;99.90;;;;;;4978437;28;20103;-92
2022/03/30 02:17:27;;;;;;;42.72;17.77;;;5.50;99.90;;;;;;4995971;28;20053;-93
2022/03/30 02:19:55;;;;;;;37.00;16.58;;;5.50;99.90;;;;;;4979683;28;20057;-92
2022/03/30 02:22:22;;;;;;;41.05;17.30;;;5.50;99.90;;;;;;4978396;28;20038;-93
2022/03/30 02:24:49;;;;;;;41.35;17.23;;;5.50;99.90;;;;;;4979979;28;20489;-94
2022/03/30 02:27:15;;;;;;;39.10;15.32;;;6.30;99.90;;;;;;4978997;28;20046;-95
2022/03/30 02:29:41;;;;;;;41.15;17.02;;;6.00;99.90;;;;;;4978518;28;20502;-93
2022/03/30 02:32:08;;;;;;;35.40;16.38;;;5.40;99.90;;;;;;4979471;28;20046;-92
2022/03/30 02:34:33;;;;;;;30.13;15.27;;;5.50;99.90;;;;;;4979533;28;20100;-92
2022/03/30 02:37:00;;;;;;;33.40;16.17;;;5.40;99.90;;;;;;4979120;28;20049;-91
2022/03/30 02:39:25;;;;;;;36.20;15.30;;;5.40;99.90;;;;;;4978588;28;20042;-94
2022/03/30 02:41:51;;;;;;;28.80;13.45;;;5.40;99.90;;;;;;4978985;28;20045;-96
2022/03/30 02:44:17;;;;;;;27.52;11.90;;;5.20;99.90;;;;;;4979505;28;20164;-95
2022/03/30 02:46:42;;;;;;;23.55;10.80;;;5.90;99.90;;;;;;4980688;28;20042;-96
2022/03/30 02:49:09;;;;;;;21.15;9.82;;;6.30;99.90;;;;;;4978958;28;20038;-96
2022/03/30 02:51:35;;;;;;;21.30;8.80;;;6.10;99.90;;;;;;4983727;28;20046;-96
2022/03/30 02:54:01;;;;;;;20.13;7.75;;;6.00;99.90;;;;;;4983067;28;20050;-96
2022/03/30 02:56:26;;;;;;;9.98;4.22;;;5.50;99.90;;;;;;4985050;28;20042;-96
2022/03/30 02:58:52;;;;;;;9.27;2.60;;;5.40;99.90;;;;;;4985373;28;20490;-96
2022/03/30 03:01:18;;;;;;;6.25;2.50;;;5.40;99.90;;;;;;4992050;28;20125;-95
2022/03/30 03:03:43;;;;;;;7.50;2.22;;;5.40;99.90;;;;;;4995111;28;20618;-96
2022/03/30 03:06:09;;;;;;;6.22;2.03;;;5.40;99.90;;;;;;4978165;28;20065;-96
2022/03/30 03:08:35;;;;;;;7.53;2.00;;;5.30;99.90;;;;;;4995066;28;20057;-96
2022/03/30 03:11:00;;;;;;;6.15;1.42;;;5.40;99.90;;;;;;4994745;28;20129;-94
2022/03/30 03:13:26;;;;;;;7.75;2.15;;;5.30;99.90;;;;;;4995774;28;20049;-95
2022/03/30 03:15:55;;;;;;;5.00;1.50;;;5.30;99.90;;;;;;4978339;28;20051;-95
2022/03/30 03:18:20;;;;;;;7.78;1.08;;;5.30;99.90;;;;;;4977288;28;20060;-96
2022/03/30 03:20:48;;;;;;;2.85;1.05;;;5.20;99.90;;;;;;4978541;28;20046;-93
2022/03/30 03:23:15;;;;;;;3.38;1.00;;;6.00;99.90;;;;;;4978054;28;20054;-96
2022/03/30 03:25:41;;;;;;;5.20;0.65;;;5.60;99.90;;;;;;4977950;28;20548;-92
2022/03/30 03:28:19;;;;;;;3.63;0.52;;;6.30;99.90;;;;;;4978365;28;20057;-91
2022/03/30 03:30:45;;;;;;;1.67;0.60;;;5.20;99.90;;;;;;4977969;28;20046;-94
2022/03/30 03:33:11;;;;;;;5.45;0.63;;;5.80;99.90;;;;;;4987228;28;20045;-95
2022/03/30 03:35:37;;;;;;;3.78;0.70;;;5.10;99.90;;;;;;4997603;28;20048;-95
2022/03/30 03:38:04;;;;;;;2.58;0.40;;;5.10;99.90;;;;;;4997010;28;20045;-94
2022/03/30 03:40:31;;;;;;;1.48;0.57;;;5.10;99.90;;;;;;4997517;28;20091;-95
2022/03/30 03:43:01;;;;;;;5.25;0.50;;;5.30;99.90;;;;;;5013486;28;20555;-95
2022/03/30 03:45:27;;;;;;;1.60;0.50;;;5.60;99.90;;;;;;4996622;28;20125;-95
2022/03/30 03:47:53;;;;;;;0.68;0.40;;;5.00;99.90;;;;;;4997542;28;20048;-95
2022/03/30 03:50:19;;;;;;;1.10;0.40;;;5.00;99.90;;;;;;5013363;28;20045;-95
2022/03/30 03:52:44;;;;;;;1.40;0.38;;;5.00;99.90;;;;;;4996596;28;20041;-96
2022/03/30 03:55:11;;;;;;;0.15;0.10;;;5.00;99.90;;;;;;5014265;28;20041;-96
2022/03/30 03:57:39;;;;;;;1.83;0.35;;;5.00;99.90;;;;;;5014185;28;20481;-95
2022/03/30 04:00:06;;;;;;;1.65;0.43;;;5.00;99.90;;;;;;4996709;28;20041;-96
2022/03/30 04:02:32;;;;;;;2.70;0.50;;;4.90;99.90;;;;;;4997447;28;20053;-95
2022/03/30 04:04:57;;;;;;;1.63;0.40;;;5.00;99.90;;;;;;4996603;28;20057;-96
2022/03/30 04:07:23;;;;;;;2.50;0.40;;;4.90;99.90;;;;;;5013097;28;20393;-96
2022/03/30 04:09:49;;;;;;;2.80;0.50;;;4.90;99.90;;;;;;5013430;28;20067;-96
2022/03/30 04:12:15;;;;;;;1.42;0.40;;;5.40;99.90;;;;;;4996801;28;20053;-96
2022/03/30 04:14:40;;;;;;;1.48;0.40;;;5.40;99.90;;;;;;5012523;28;20124;-95
2022/03/30 04:17:06;;;;;;;0.70;0.32;;;4.80;99.90;;;;;;4997367;28;20055;-95
2022/03/30 04:19:32;;;;;;;0.60;0.38;;;4.80;99.90;;;;;;5013483;28;20037;-96
2022/03/30 04:21:57;;;;;;;2.15;0.50;;;4.70;99.90;;;;;;4996843;28;20037;-94
2022/03/30 04:24:23;;;;;;;1.95;0.43;;;4.70;99.90;;;;;;4996234;28;20095;-94
2022/03/30 04:26:49;;;;;;;1.75;0.45;;;4.60;99.90;;;;;;4998026;28;20052;-95
2022/03/30 04:29:17;;;;;;;5.18;0.60;;;4.60;99.90;;;;;;4996785;28;20050;-96
2022/03/30 04:31:49;;;;;;;2.45;0.50;;;4.60;99.90;;;;;;4999673;28;20041;-90
2022/03/30 04:34:15;;;;;;;4.63;0.70;;;5.50;99.90;;;;;;4990533;28;20835;-96
2022/03/30 04:36:40;;;;;;;2.60;1.23;;;5.60;99.90;;;;;;5003294;28;20045;-95
2022/03/30 04:39:06;;;;;;;5.45;0.95;;;4.30;99.90;;;;;;4999515;28;20080;-96
2022/03/30 04:41:32;;;;;;;3.55;0.80;;;4.90;99.90;;;;;;4996314;28;20050;-96
2022/03/30 04:44:01;;;;;;;3.75;0.80;;;5.40;99.90;;;;;;4996414;28;20485;-96
2022/03/30 04:46:26;;;;;;;2.72;0.73;;;4.30;99.90;;;;;;4996666;28;20041;-96
2022/03/30 04:48:52;;;;;;;2.58;0.70;;;5.30;99.90;;;;;;4996318;28;20067;-95
2022/03/30 04:51:18;;;;;;;3.13;0.90;;;4.70;99.90;;;;;;4996013;28;20049;-96
2022/03/30 04:53:43;;;;;;;2.53;0.80;;;4.20;99.90;;;;;;5015828;28;20033;-96
2022/03/30 04:56:09;;;;;;;3.50;1.10;;;4.20;99.90;;;;;;4996686;28;20052;-96
2022/03/30 04:58:35;;;;;;;4.85;0.77;;;4.20;99.90;;;;;;5000057;28;20045;-96
2022/03/30 05:01:18;;;;;;;3.58;1.00;;;5.40;99.90;;;;;;5019551;23;20045;-96
2022/03/30 05:04:12;;;;;;;2.42;1.00;;;3.40;99.90;;;;;;5016607;28;20072;-96
2022/03/30 05:06:46;;;;;;;2.95;0.88;;;3.70;99.90;;;;;;5015556;28;20136;-96
2022/03/30 05:09:22;;;;;;;3.58;1.00;;;3.90;99.90;;;;;;5016075;28;20118;-96
2022/03/30 05:12:12;;;;;;;6.05;1.00;;;4.90;99.90;;;;;;5010090;28;20049;-95
2022/03/30 05:15:29;;;;;;;4.75;1.00;;;3.90;99.90;;;;;;5016697;28;20548;-96
2022/03/30 05:18:18;;;;;;;2.40;1.10;;;3.90;99.90;;;;;;4944724;28;20075;-96
2022/03/30 05:21:05;;;;;;;8.15;1.50;;;3.70;99.90;;;;;;5028095;28;20057;-96
2022/03/30 05:23:49;;;;;;;5.55;1.30;;;5.10;99.90;;;;;;5014563;28;20057;-95
2022/03/30 05:26:34;;;;;;;;;;;;;;;;;;;;;
2022/03/30 05:29:07;;;;;;;6.97;1.60;;;4.20;99.90;;;;;;5031949;28;20053;-95
2022/03/30 05:32:20;;;;;;;3.00;1.52;;;4.00;99.90;;;;;;5016239;28;20051;-95
2022/03/30 05:35:15;;;;;;;7.95;1.73;;;4.50;99.90;;;;;;4984566;28;20136;-95
2022/03/30 05:38:07;;;;;;;4.60;1.80;;;3.70;99.90;;;;;;5009008;28;20088;-95
2022/03/30 05:40:51;;;;;;;3.85;1.77;;;3.80;99.90;;;;;;4997330;28;20041;-95
2022/03/30 05:43:32;;;;;;;8.27;2.25;;;4.20;99.90;;;;;;5015317;28;20439;-96
2022/03/30 05:46:24;;;;;;;5.60;1.75;;;4.80;99.90;;;;;;4997438;28;20072;-95
2022/03/30 05:49:20;;;;;;;10.18;1.90;;;3.60;99.90;;;;;;5015764;28;20076;-95
2022/03/30 05:51:49;;;;;;;11.57;2.25;;;3.60;99.90;;;;;;5027838;23;20045;-93
2022/03/30 05:54:14;;;;;;;9.77;2.72;;;3.80;99.90;;;;;;5016887;28;20381;-96
2022/03/30 05:59:34;;;;;;;8.52;2.72;;;3.90;99.90;;;;;;5033899;28;20049;-95
2022/03/30 06:02:01;;;;;;;9.50;2.72;;;3.80;99.90;;;;;;5020966;28;20538;-95
2022/03/30 06:04:27;;;;;;;8.07;2.28;;;3.90;99.90;;;;;;5038729;28;20124;-93
2022/03/30 06:06:53;;;;;;;6.45;2.20;;;4.80;99.90;;;;;;5021052;28;20091;-95
2022/03/30 06:09:22;;;;;;;6.30;2.00;;;3.90;99.90;;;;;;5036081;28;20045;-96
2022/03/30 06:11:59;;;;;;;;;;;;;;;;;;;;;
2022/03/30 06:14:25;;;;;;;9.38;2.60;;;3.60;99.90;;;;;;5052704;28;20079;-96
2022/03/30 06:16:54;;;;;;;7.43;2.10;;;5.20;99.90;;;;;;5027371;28;20540;-96
2022/03/30 06:19:19;;;;;;;7.65;1.80;;;3.20;99.90;;;;;;5027256;28;20056;-96
2022/03/30 06:21:46;;;;;;;6.65;1.83;;;4.00;99.90;;;;;;5016173;28;20038;-94
2022/03/30 06:24:15;;;;;;;9.27;2.33;;;4.10;99.90;;;;;;5007063;28;20084;-95
2022/03/30 06:26:41;;;;;;;7.20;2.20;;;4.10;99.90;;;;;;5027694;28;20098;-95
2022/03/30 06:29:08;;;;;;;6.03;2.28;;;4.20;99.90;;;;;;5025610;28;20118;-96
2022/03/30 06:31:34;;;;;;;11.82;2.20;;;5.10;99.90;;;;;;5016726;28;20548;-96
2022/03/30 06:34:00;;;;;;;6.75;2.20;;;4.20;99.90;;;;;;5031599;28;20135;-95
2022/03/30 06:36:27;;;;;;;10.85;2.00;;;4.30;99.90;;;;;;5007892;28;20042;-96
2022/03/30 06:38:52;;;;;;;5.93;2.10;;;4.50;99.90;;;;;;5024101;28;20122;-96
2022/03/30 06:44:40;;;;;;;;;;;4.50;99.90;;;;;;5014469;28;20064;-96
2022/03/30 07:01:21;;;;;;;11.25;1.80;;;5.00;99.90;;;;;;4998295;23;20194;-94
2022/03/30 07:03:46;;;;;;;10.65;1.92;;;5.00;99.90;;;;;;4978928;28;20146;-94
2022/03/30 07:06:12;;;;;;;6.78;1.80;;;5.70;99.90;;;;;;4969648;28;20524;-96
2022/03/30 07:11:38;;;;;;;11.82;2.28;;;5.80;99.90;;;;;;4983880;28;20053;-95
2022/03/30 07:14:04;;;;;;;6.65;1.92;;;5.30;99.90;;;;;;4970379;28;20501;-96
2022/03/30 07:16:30;;;;;;;10.65;1.70;;;5.00;99.90;;;;;;4981654;28;20065;-96
2022/03/30 07:19:00;;;;;;;10.60;1.70;;;5.40;99.90;;;;;;4975380;28;20035;-96
2022/03/30 07:21:39;;;;;;;;;;;;;;;;;;;;;
2022/03/30 07:24:11;;;;;;;7.13;1.70;;;6.40;99.90;;;;;;4998745;28;20062;-96
2022/03/30 07:26:40;;;;;;;9.57;1.70;;;5.20;99.90;;;;;;4982648;28;20054;-96
2022/03/30 07:29:06;;;;;;;13.77;2.83;;;5.70;99.90;;;;;;4991968;28;20066;-96
2022/03/30 07:31:36;;;;;;;6.80;1.98;;;5.90;99.90;;;;;;4980582;28;20042;-96
2022/03/30 07:34:02;;;;;;;8.02;2.55;;;6.00;99.90;;;;;;4995424;28;20094;-96
2022/03/30 07:36:28;;;;;;;5.82;2.97;;;6.90;99.90;;;;;;4977321;28;20054;-96
2022/03/30 07:38:57;;;;;;;7.85;3.00;;;6.10;99.90;;;;;;4983442;28;20046;-96
2022/03/30 07:41:31;;;;;;;7.30;2.80;;;6.10;99.90;;;;;;4981573;28;20111;-96
2022/03/30 07:43:56;;;;;;;10.85;2.40;;;6.90;99.90;;;;;;4995356;28;20042;-96
2022/03/30 07:46:25;;;;;;;6.22;2.17;;;6.10;99.90;;;;;;4993554;28;20101;-96
2022/03/30 07:48:50;;;;;;;10.15;2.03;;;7.00;99.90;;;;;;4982003;28;20054;-96
2022/03/30 07:51:16;;;;;;;6.95;1.98;;;6.60;99.90;;;;;;4983861;28;20058;-96
2022/03/30 07:53:42;;;;;;;8.90;2.00;;;6.50;99.90;;;;;;4971236;28;20056;-96
2022/03/30 07:56:08;;;;;;;6.82;1.70;;;6.50;99.90;;;;;;4966320;28;20046;-96
2022/03/30 07:58:34;;;;;;;9.18;2.03;;;6.50;99.90;;;;;;4965300;28;20502;-95
2022/03/30 08:01:03;;;;;;;5.05;1.00;;;7.00;99.90;;;;;;4962109;28;20042;-96
2022/03/30 08:03:28;;;;;;;6.13;1.02;;;7.40;99.90;;;;;;4976663;28;20118;-96
2022/03/30 08:06:11;;;;;;;10.05;1.42;;;6.30;99.90;;;;;;4982023;28;20030;-96
2022/03/30 08:08:40;;;;;;;3.85;1.10;;;6.20;99.90;;;;;;4981536;28;20050;-96
2022/03/30 08:11:08;;;;;;;6.38;1.13;;;6.10;99.90;;;;;;4976151;28;20046;-96
2022/03/30 08:13:40;;;;;;;4.65;0.60;;;6.30;99.90;;;;;;4974746;28;20101;-96
2022/03/30 08:16:06;;;;;;;7.35;1.00;;;5.90;99.90;;;;;;4993411;28;20046;-96
2022/03/30 08:18:31;;;;;;;4.38;0.90;;;5.60;99.90;;;;;;4991666;28;20050;-96
2022/03/30 08:23:43;;;;;;;6.38;1.20;;;6.80;99.90;;;;;;5095612;23;20110;-95
2022/03/30 08:26:09;;;;;;;6.53;0.73;;;6.00;99.90;;;;;;4951843;28;20537;-95
2022/03/30 08:28:34;;;;;;;7.85;1.02;;;6.20;99.90;;;;;;4965735;28;20074;-94
2022/03/30 08:31:00;;;;;;;10.20;1.10;;;6.00;99.90;;;;;;4942405;28;20042;-94
2022/03/30 08:33:27;;;;;;;8.75;1.60;;;6.00;99.90;;;;;;4942349;28;20473;-96
2022/03/30 08:36:02;;;;;;;5.28;1.13;;;6.20;99.90;;;;;;4947292;28;20050;-95
2022/03/30 08:38:28;;;;;;;5.38;0.70;;;5.80;99.90;;;;;;4947891;28;20055;-94
2022/03/30 08:40:57;;;;;;;7.63;0.90;;;6.40;99.90;;;;;;4944767;28;20053;-93
2022/03/30 08:43:24;;;;;;;5.78;1.08;;;5.80;99.90;;;;;;4960069;28;20129;-95
2022/03/30 08:45:50;;;;;;;5.25;1.20;;;6.00;99.90;;;;;;4943529;28;20047;-95
2022/03/30 08:48:16;;;;;;;11.27;1.23;;;5.80;99.90;;;;;;4959316;28;20054;-95
2022/03/30 08:50:41;;;;;;;7.43;0.88;;;6.00;99.90;;;;;;4965715;28;20138;-95
2022/03/30 08:53:07;;;;;;;3.20;0.90;;;6.00;99.90;;;;;;4947656;28;20128;-94
2022/03/30 08:55:34;;;;;;;4.97;0.65;;;6.10;99.90;;;;;;4943071;28;20063;-96
2022/03/30 08:58:01;;;;;;;8.13;1.50;;;6.20;99.90;;;;;;4948744;28;20035;-96
2022/03/30 09:00:26;;;;;;;5.88;0.93;;;6.20;99.90;;;;;;4954457;28;20053;-95
2022/03/30 09:03:00;;;;;;;7.30;0.60;;;6.70;99.90;;;;;;4957349;28;20042;-94
2022/03/30 09:05:30;;;;;;;7.28;1.08;;;7.10;99.90;;;;;;4972107;28;20058;-92
2022/03/30 09:08:12;;;;;;;5.93;1.00;;;5.50;99.90;;;;;;4957548;28;20050;-93
2022/03/30 09:10:40;;;;;;;3.30;0.52;;;6.50;99.90;;;;;;4956726;28;20112;-94
2022/03/30 09:13:07;;;;;;;6.18;0.85;;;6.60;99.90;;;;;;4958099;28;20039;-94
2022/03/30 09:15:35;;;;;;;5.82;0.93;;;6.70;99.90;;;;;;4957057;28;20046;-94
2022/03/30 09:18:06;;;;;;;7.78;0.75;;;7.70;99.90;;;;;;4974927;28;20132;-95
2022/03/30 09:20:32;;;;;;;5.28;0.70;;;6.90;99.90;;;;;;4957637;28;20042;-95
2022/03/30 09:23:00;;;;;;;6.05;0.82;;;7.00;99.90;;;;;;4959605;28;20109;-93
2022/03/30 09:25:27;;;;;;;6.68;0.77;;;7.10;99.90;;;;;;4960644;28;20035;-94
2022/03/30 09:27:55;;;;;;;9.90;0.85;;;7.30;99.90;;;;;;4959353;28;20461;-93
2022/03/30 09:30:22;;;;;;;10.77;1.10;;;7.00;99.90;;;;;;4955980;28;20549;-94
2022/03/30 09:32:50;;;;;;;7.93;0.95;;;8.00;99.90;;;;;;4957687;28;20038;-95
2022/03/30 09:35:38;;;;;;;9.43;1.35;;;7.00;99.90;;;;;;4956753;28;20082;-93
2022/03/30 09:38:08;;;;;;;5.93;0.93;;;7.00;99.90;;;;;;4956273;28;20158;-94
2022/03/30 09:40:36;;;;;;;11.25;1.45;;;7.00;99.90;;;;;;4957481;28;20121;-94
2022/03/30 09:43:10;;;;;;;5.88;1.33;;;7.20;99.90;;;;;;4956957;28;20096;-95
2022/03/30 09:45:45;;;;;;;8.63;1.20;;;7.50;99.90;;;;;;4956224;28;20478;-96
2022/03/30 09:48:21;;;;;;;6.43;1.10;;;7.70;99.90;;;;;;4957278;28;20050;-93
2022/03/30 09:50:50;;;;;;;8.30;1.35;;;7.20;99.90;;;;;;4943719;29;20047;-94
2022/03/30 09:53:29;;;;;;;5.78;1.10;;;8.00;99.90;;;;;;4934359;29;20086;-95
2022/03/30 09:56:01;;;;;;;6.07;1.00;;;8.20;99.90;;;;;;4935623;29;20527;-94
2022/03/30 09:58:40;;;;;;;6.72;1.30;;;8.10;99.90;;;;;;4934776;29;20061;-95
2022/03/30 10:01:11;;;;;;;4.70;1.10;;;7.50;99.90;;;;;;4934496;29;20049;-94
2022/03/30 10:03:43;;;;;;;7.30;1.23;;;7.60;99.90;;;;;;4934860;29;20051;-93
2022/03/30 10:06:10;;;;;;;9.25;1.90;;;7.80;99.90;;;;;;4930944;28;20518;-93
2022/03/30 10:08:38;;;;;;;7.35;1.17;;;8.20;99.90;;;;;;4938085;28;20139;-94
2022/03/30 10:11:04;;;;;;;6.05;0.90;;;8.00;99.90;;;;;;4937255;28;20051;-93
2022/03/30 10:13:30;;;;;;;6.25;1.00;;;8.10;99.90;;;;;;4937045;28;20047;-94
2022/03/30 10:15:56;;;;;;;6.45;1.20;;;8.30;99.90;;;;;;4952499;28;20046;-92
2022/03/30 10:18:23;;;;;;;6.82;1.17;;;8.20;99.90;;;;;;4937591;28;20053;-92
2022/03/30 10:21:04;;;;;;;8.73;1.13;;;9.00;99.90;;;;;;4937392;28;20106;-92
2022/03/30 10:23:47;;;;;;;8.35;1.10;;;9.10;99.90;;;;;;4946298;28;20050;-94
2022/03/30 10:26:49;;;;;;;5.88;1.55;;;8.80;99.90;;;;;;4946958;28;20050;-93
2022/03/30 10:29:17;;;;;;;5.18;1.30;;;8.30;99.90;;;;;;4952131;28;20061;-89
2022/03/30 10:32:13;;;;;;;6.15;0.80;;;8.30;99.90;;;;;;4941469;28;20055;-88
2022/03/30 10:34:47;;;;;;;5.03;1.00;;;8.10;99.90;;;;;;4938585;28;20053;-89
2022/03/30 10:37:13;;;;;;;7.60;1.10;;;8.50;99.90;;;;;;4957929;28;20038;-88
2022/03/30 10:40:03;;;;;;;4.72;0.80;;;7.80;99.90;;;;;;4960883;28;20080;-88
2022/03/30 10:42:49;;;;;;;6.97;1.27;;;7.70;99.90;;;;;;4944111;28;20236;-88
2022/03/30 10:45:44;;;;;;;11.15;1.00;;;7.40;99.90;;;;;;4948707;28;20074;-90
2022/03/30 10:48:18;;;;;;;7.18;0.90;;;7.80;99.90;;;;;;4946930;28;20133;-91
2022/03/30 10:50:54;;;;;;;7.80;1.20;;;8.10;99.90;;;;;;4947716;28;20038;-89
2022/03/30 10:53:35;;;;;;;5.85;0.75;;;7.90;99.90;;;;;;4957587;28;20488;-91
2022/03/30 10:56:28;;;;;;;4.60;1.10;;;8.50;99.90;;;;;;4971736;28;20049;-92
2022/03/30 10:58:56;;;;;;;4.80;0.60;;;8.30;99.90;;;;;;4954900;28;20129;-91
2022/03/30 11:01:25;;;;;;;9.52;1.50;;;8.10;99.90;;;;;;4940149;28;20057;-91
2022/03/30 11:04:03;;;;;;;5.50;1.35;;;8.50;99.90;;;;;;4940813;28;20046;-89
2022/03/30 11:06:39;;;;;;;5.40;0.80;;;8.40;99.90;;;;;;4942282;28;20054;-88
2022/03/30 11:09:07;;;;;;;4.70;0.80;;;8.40;99.90;;;;;;4939323;28;20047;-87
2022/03/30 11:11:39;;;;;;;9.32;0.80;;;8.50;99.90;;;;;;4950538;28;20050;-89
2022/03/30 11:14:25;;;;;;;3.60;0.85;;;8.40;99.90;;;;;;4956520;28;20080;-89
2022/03/30 11:16:54;;;;;;;7.30;0.70;;;7.80;99.90;;;;;;4959406;28;20057;-88
2022/03/30 11:19:50;;;;;;;4.93;0.95;;;7.60;99.90;;;;;;4959980;28;20042;-89
2022/03/30 11:22:22;;;;;;;5.47;1.20;;;7.50;99.90;;;;;;4958635;28;20050;-87
2022/03/30 11:25:07;;;;;;;4.95;0.82;;;8.00;99.90;;;;;;4940548;28;20058;-88
2022/03/30 11:27:39;;;;;;;7.47;0.90;;;7.40;99.90;;;;;;4959230;28;20081;-88
2022/03/30 11:30:16;;;;;;;7.93;1.10;;;7.50;99.90;;;;;;4944440;28;20050;-88
2022/03/30 11:32:50;;;;;;;9.27;1.20;;;7.70;99.90;;;;;;4940833;28;20523;-87
2022/03/30 11:35:18;;;;;;;7.25;0.70;;;7.80;99.90;;;;;;4952167;28;20552;-88
2022/03/30 11:37:47;;;;;;;7.50;1.10;;;8.50;99.90;;;;;;4952543;28;20049;-89
2022/03/30 11:40:22;;;;;;;7.53;1.00;;;8.30;99.90;;;;;;4943649;28;20043;-89
2022/03/30 11:42:52;;;;;;;6.53;1.20;;;8.50;99.90;;;;;;4940060;28;20046;-88
2022/03/30 11:45:20;;;;;;;4.65;0.80;;;8.60;99.90;;;;;;4949349;28;20483;-88
2022/03/30 11:47:49;;;;;;;8.63;1.15;;;9.60;99.90;;;;;;4939742;28;20047;-87
2022/03/30 11:50:20;;;;;;;5.07;0.80;;;9.00;99.90;;;;;;4934350;29;20130;-88
2022/03/30 11:52:54;;;;;;;2.95;0.70;;;9.20;99.90;;;;;;4937837;28;20515;-88
2022/03/30 11:55:51;;;;;;;4.50;0.80;;;9.30;99.90;;;;;;4944812;28;20061;-89
2022/03/30 11:58:35;;;;;;;4.15;0.80;;;9.40;99.90;;;;;;4951823;28;20566;-90
2022/03/30 12:01:05;;;;;;;6.38;0.70;;;9.50;99.90;;;;;;4944991;28;20049;-88
2022/03/30 12:03:32;;;;;;;5.30;0.45;;;9.60;99.90;;;;;;4955162;28;20043;-88
2022/03/30 12:06:06;;;;;;;8.40;0.70;;;9.50;99.90;;;;;;4958260;28;20097;-87
2022/03/30 12:08:41;;;;;;;5.22;0.60;;;9.40;99.90;;;;;;4941116;28;20102;-89
2022/03/30 12:11:21;;;;;;;4.80;0.80;;;9.20;99.90;;;;;;4955616;28;20134;-89
2022/03/30 12:13:54;;;;;;;5.63;1.10;;;9.20;99.90;;;;;;4939938;28;20038;-88
2022/03/30 12:16:22;;;;;;;5.75;1.02;;;9.20;99.90;;;;;;4947149;28;20038;-89
2022/03/30 12:18:59;;;;;;;7.63;1.02;;;9.70;99.90;;;;;;4940497;28;20039;-87
2022/03/30 12:21:27;;;;;;;10.13;1.25;;;9.00;99.90;;;;;;4943319;28;20126;-88
2022/03/30 12:23:57;;;;;;;5.00;0.90;;;8.70;99.90;;;;;;4947723;28;20078;-90
2022/03/30 12:26:24;;;;;;;4.90;0.80;;;8.80;99.90;;;;;;4952908;28;20387;-89
2022/03/30 12:28:50;;;;;;;7.78;1.23;;;8.30;99.90;;;;;;4945881;28;20487;-88
2022/03/30 12:31:16;;;;;;;5.03;0.77;;;8.10;99.90;;;;;;4938595;28;20150;-86
2022/03/30 12:33:43;;;;;;;11.25;1.20;;;8.00;99.90;;;;;;4945492;28;20046;-84
2022/03/30 12:36:15;;;;;;;5.28;1.08;;;7.90;99.90;;;;;;4943591;28;20042;-85
2022/03/30 12:38:41;;;;;;;8.77;1.02;;;8.10;99.90;;;;;;4944095;28;20046;-86
2022/03/30 12:41:07;;;;;;;8.55;1.30;;;8.40;99.90;;;;;;4950268;28;20068;-89
2022/03/30 12:43:33;;;;;;;4.32;0.52;;;8.50;99.90;;;;;;4958067;28;20038;-85
2022/03/30 12:46:00;;;;;;;5.72;0.70;;;8.50;99.90;;;;;;4956053;28;20042;-86
2022/03/30 12:48:31;;;;;;;5.93;0.82;;;8.80;99.90;;;;;;4955947;28;20046;-86
2022/03/30 12:50:59;;;;;;;5.75;0.52;;;8.20;99.90;;;;;;4957339;28;20043;-86
2022/03/30 12:53:30;;;;;;;9.15;1.05;;;8.30;99.90;;;;;;4958005;28;20453;-87
2022/03/30 12:56:12;;;;;;;8.07;0.93;;;8.20;99.90;;;;;;4956429;28;20055;-85
2022/03/30 12:58:50;;;;;;;4.50;0.77;;;8.40;99.90;;;;;;4937816;28;20057;-85
2022/03/30 13:01:27;;;;;;;5.80;1.00;;;8.40;99.90;;;;;;4954378;28;20046;-88
2022/03/30 13:03:53;;;;;;;11.35;1.10;;;8.40;99.90;;;;;;4937734;28;20055;-86
2022/03/30 13:06:20;;;;;;;5.57;0.75;;;8.70;99.90;;;;;;4937753;28;20266;-87
2022/03/30 13:09:06;;;;;;;6.22;0.80;;;8.40;99.90;;;;;;4944525;28;20085;-93
2022/03/30 13:11:31;;;;;;;5.82;0.88;;;8.40;99.90;;;;;;4938608;28;20051;-89
2022/03/30 13:13:58;;;;;;;8.88;1.02;;;8.30;99.90;;;;;;4960482;28;20054;-85
2022/03/30 13:16:29;;;;;;;3.75;0.73;;;8.40;99.90;;;;;;4936184;28;20501;-86
2022/03/30 13:19:06;;;;;;;4.38;0.70;;;8.70;99.90;;;;;;4963579;28;20432;-84
2022/03/30 13:21:37;;;;;;;5.95;0.90;;;9.40;99.90;;;;;;4964095;28;20050;-85
2022/03/30 13:24:12;;;;;;;5.07;0.80;;;8.90;99.90;;;;;;4953573;28;20384;-84
2022/03/30 13:26:39;;;;;;;4.93;0.73;;;9.00;99.90;;;;;;4939150;28;20058;-85
2022/03/30 13:29:05;;;;;;;7.97;0.95;;;9.20;99.90;;;;;;4941796;28;20046;-84
2022/03/30 13:31:31;;;;;;;8.02;1.10;;;9.00;99.90;;;;;;4947580;28;20050;-84
2022/03/30 13:33:59;;;;;;;1.70;0.60;;;8.90;99.90;;;;;;4959899;28;20046;-85
2022/03/30 13:36:26;;;;;;;12.63;0.90;;;8.60;99.90;;;;;;4944713;28;20038;-84
2022/03/30 13:38:54;;;;;;;5.60;0.90;;;8.70;99.90;;;;;;4942840;28;20064;-85
2022/03/30 13:41:20;;;;;;;3.92;0.60;;;8.40;99.90;;;;;;4947231;28;20035;-85